ZKEAN NZAR-NZAR

Flight info

Callsign ZKEAN
Flight time N/A
Altitude 8000
Route HUNTY
Aircraft DA42/L-SBDGRY/S

Departure

Time 2026-04-29 04:17
Airport Ardmore Airport (NZAR)

Arrival

Time N/A
Airport Ardmore Airport (NZAR)
Time Latitude Longitude Altitude Speed Heading
2026-04-29 04:05 -37.03612 174.97030 106 ft 0 kts 225°
2026-04-29 04:13 -37.03607 174.96996 106 ft 7 kts 328°
2026-04-29 04:14 -37.03563 174.96940 107 ft 11 kts 331°
2026-04-29 04:14 -37.03503 174.96912 107 ft 0 kts 49°
2026-04-29 04:15 -37.03501 174.96915 107 ft 7 kts 49°
2026-04-29 04:15 -37.03294 174.97183 108 ft 72 kts 46°
2026-04-29 04:15 -37.02857 174.97661 256 ft 88 kts 30°
2026-04-29 04:15 -37.02849 174.97667 260 ft 88 kts 29°
2026-04-29 04:16 -37.02666 174.97762 361 ft 88 kts 14°
2026-04-29 04:16 -37.02451 174.97789 450 ft 90 kts
2026-04-29 04:16 -37.01812 174.97567 701 ft 100 kts 352°
2026-04-29 04:17 -37.01157 174.97788 986 ft 99 kts 34°
2026-04-29 04:17 -37.00799 174.98506 1286 ft 100 kts 79°
2026-04-29 04:17 -37.00879 174.99348 1582 ft 98 kts 118°
2026-04-29 04:17 -37.01353 174.99930 1888 ft 94 kts 144°
2026-04-29 04:18 -37.01919 175.00436 2013 ft 111 kts 143°
2026-04-29 04:18 -37.02368 175.01305 2012 ft 129 kts 111°
2026-04-29 04:18 -37.02689 175.02404 2016 ft 139 kts 109°
2026-04-29 04:18 -37.03159 175.03469 2013 ft 143 kts 133°
2026-04-29 04:19 -37.03961 175.04170 2012 ft 145 kts 156°
2026-04-29 04:19 -37.04899 175.04646 2013 ft 146 kts 159°
2026-04-29 04:19 -37.05847 175.05108 2016 ft 146 kts 159°
2026-04-29 04:19 -37.06794 175.05569 2017 ft 146 kts 159°
2026-04-29 04:20 -37.07682 175.05999 2005 ft 119 kts 160°
2026-04-29 04:20 -37.08030 175.06167 1991 ft 103 kts 159°
2026-04-29 04:20 -37.08602 175.06444 1979 ft 74 kts 159°
2026-04-29 04:20 -37.08793 175.06537 1901 ft 75 kts 160°
2026-04-29 04:21 -37.09080 175.06660 1750 ft 81 kts 168°
2026-04-29 04:21 -37.09169 175.06684 1731 ft 80 kts 169°
2026-04-29 04:21 -37.09583 175.06750 1596 ft 78 kts 176°
2026-04-29 04:22 -37.10078 175.06823 1461 ft 81 kts 186°
2026-04-29 04:22 -37.10680 175.06800 1645 ft 98 kts 165°
2026-04-29 04:24 -37.10883 175.06881 1707 ft 84 kts 161°
2026-04-29 04:24 -37.10897 175.06888 1710 ft 83 kts 161°
2026-04-29 04:25 -37.11218 175.07036 1701 ft 66 kts 160°